Time;durP1;ratioP1;P1;durP2;ratioP2;P2;SDS_P1;SDS_P2;PMS_P1;PMS_P2;Temp;Humidity;BMP_temperature;BMP_pressure;BME280_temperature;BME280_humidity;BME280_pressure;Samples;Min_cycle;Max_cycle;Signal;HPM_P1;HPM_P2
2023/01/12 00:00:37;;;;;;;15.80;5.40;;;;;;;5.98;98.92;100195.33;106507;1276;22541;-61
2023/01/12 00:03:21;;;;;;;16.20;5.20;;;;;;;5.99;99.04;100199.23;106487;1271;22528;-62
2023/01/12 00:05:59;;;;;;;19.00;5.20;;;;;;;5.99;99.00;100205.88;106620;1268;24346;-62
2023/01/12 00:08:32;;;;;;;20.10;5.90;;;;;;;6.00;99.10;100209.02;106768;1265;23016;-61
2023/01/12 00:11:03;;;;;;;17.70;5.60;;;;;;;6.00;99.13;100213.59;106562;1273;22530;-61
2023/01/12 00:13:34;;;;;;;20.40;5.70;;;;;;;6.01;99.12;100213.57;106470;1270;22534;-62
2023/01/12 00:18:55;;;;;;;20.30;6.20;;;;;;;6.03;99.23;100220.39;106532;1270;24250;-62
2023/01/12 00:21:26;;;;;;;15.50;5.50;;;;;;;6.03;99.18;100227.58;106546;1270;23945;-62
2023/01/12 00:23:57;;;;;;;17.00;6.00;;;;;;;6.05;99.24;100229.19;106660;1276;22534;-63
2023/01/12 00:26:28;;;;;;;18.70;5.60;;;;;;;6.06;99.25;100233.56;106514;1276;22550;-63
2023/01/12 00:28:59;;;;;;;17.30;5.80;;;;;;;6.07;99.31;100232.50;106478;1273;23020;-63
2023/01/12 00:31:30;;;;;;;18.60;5.20;;;;;;;6.09;99.21;100235.08;106652;1262;24086;-61
2023/01/12 00:34:01;;;;;;;15.60;5.30;;;;;;;6.09;99.35;100239.17;106484;1253;25536;-61
2023/01/12 00:36:32;;;;;;;14.50;5.10;;;;;;;6.10;99.43;100241.77;106619;1262;22555;-62
2023/01/12 00:39:03;;;;;;;14.90;5.20;;;;;;;6.10;99.19;100240.64;106563;1276;22669;-61
2023/01/12 00:47:13;;;;;;;12.10;3.80;;;;;;;6.10;99.23;100250.61;106549;1276;23025;-62
2023/01/12 00:49:44;;;;;;;16.30;5.20;;;;;;;6.09;99.10;100255.34;106660;1268;22526;-62
2023/01/12 00:52:17;;;;;;;12.70;4.70;;;;;;;6.08;99.12;100258.78;106625;1262;26195;-62
2023/01/12 00:54:48;;;;;;;12.80;5.10;;;;;;;6.07;99.14;100264.34;106539;1262;22528;-62
2023/01/12 00:57:19;;;;;;;12.80;4.40;;;;;;;6.07;99.12;100266.73;106503;1271;22568;-63
2023/01/12 00:59:53;;;;;;;15.00;4.90;;;;;;;6.06;99.12;100268.02;106614;1276;24229;-62
2023/01/12 01:02:24;;;;;;;11.80;3.80;;;;;;;6.05;98.95;100274.73;106606;1274;22531;-62
2023/01/12 01:04:55;;;;;;;14.40;4.10;;;;;;;6.02;99.06;100278.77;106527;1273;24229;-62
2023/01/12 01:07:26;;;;;;;13.40;4.30;;;;;;;6.02;99.01;100283.34;106540;1276;24257;-61
2023/01/12 01:09:57;;;;;;;14.10;4.80;;;;;;;6.01;99.05;100282.13;106562;1276;25477;-61
2023/01/12 01:12:28;;;;;;;15.30;4.60;;;;;;;5.99;99.01;100286.23;106586;1276;25230;-60
2023/01/12 01:14:59;;;;;;;12.00;3.80;;;;;;;5.98;99.00;100294.08;106519;1276;23154;-62
2023/01/12 01:17:30;;;;;;;15.30;5.10;;;;;;;5.97;99.12;100295.31;106604;1276;22600;-62
2023/01/12 01:20:03;;;;;;;15.50;4.60;;;;;;;5.97;98.97;100288.55;106519;1269;22534;-62
2023/01/12 01:22:34;;;;;;;11.40;3.90;;;;;;;5.96;99.05;100285.70;106435;1276;22657;-63
2023/01/12 01:25:06;;;;;;;15.00;4.20;;;;;;;5.97;98.85;100290.20;106479;1265;22540;-62
2023/01/12 01:27:37;;;;;;;12.90;4.10;;;;;;;5.95;98.89;100289.63;106575;1267;24223;-63
2023/01/12 01:30:11;;;;;;;17.20;5.40;;;;;;;5.93;98.84;100288.80;106550;1270;22529;-63
2023/01/12 01:32:42;;;;;;;13.10;4.10;;;;;;;5.92;98.80;100293.20;106581;1269;25384;-62
2023/01/12 01:35:13;;;;;;;14.50;4.20;;;;;;;5.90;98.81;100297.37;106594;1262;24221;-62
2023/01/12 01:37:44;;;;;;;14.00;4.50;;;;;;;5.90;98.75;100300.81;106541;1260;22527;-62
2023/01/12 01:40:16;;;;;;;13.70;4.90;;;;;;;5.89;98.80;100303.99;106612;1276;24292;-62
2023/01/12 01:42:47;;;;;;;13.10;4.20;;;;;;;5.88;98.75;100303.37;106627;1274;22611;-62
2023/01/12 01:45:18;;;;;;;15.20;4.80;;;;;;;5.87;98.63;100299.05;106472;1270;22530;-62
2023/01/12 01:47:53;;;;;;;13.60;4.30;;;;;;;5.86;98.65;100299.50;106671;1276;22569;-62
2023/01/12 01:50:29;;;;;;;11.80;3.90;;;;;;;5.84;98.58;100296.46;106593;1270;24390;-62
2023/01/12 01:53:03;;;;;;;12.50;3.10;;;;;;;5.83;98.48;100296.40;106544;1276;23009;-62
2023/01/12 01:55:38;;;;;;;14.10;3.80;;;;;;;5.82;98.52;100296.27;106640;1271;22594;-62
2023/01/12 01:58:13;;;;;;;14.60;4.20;;;;;;;5.81;98.42;100295.82;106687;1262;22579;-62
2023/01/12 02:00:46;;;;;;;15.90;4.30;;;;;;;5.79;98.41;100299.21;106675;1262;22527;-62
2023/01/12 02:03:18;;;;;;;12.30;3.70;;;;;;;5.77;98.35;100300.08;106683;1263;24218;-62
2023/01/12 02:05:51;;;;;;;12.80;3.80;;;;;;;5.75;98.41;100301.23;106621;1268;25446;-63
2023/01/12 02:08:28;;;;;;;11.90;3.90;;;;;;;5.75;98.38;100296.88;106558;1269;22540;-63
2023/01/12 02:11:00;;;;;;;17.80;5.60;;;;;;;5.76;98.29;100298.84;106644;1273;22651;-63
2023/01/12 02:16:27;;;;;;;14.60;3.50;;;;;;;5.74;98.33;100294.21;106456;1271;22526;-61
2023/01/12 02:19:20;;;;;;;18.00;4.90;;;;;;;5.75;98.24;100292.62;106559;1265;24227;-63
2023/01/12 02:22:09;;;;;;;13.50;4.10;;;;;;;5.73;98.21;100289.09;106641;1273;25360;-63
2023/01/12 02:25:19;;;;;;;13.30;4.30;;;;;;;5.71;98.10;100294.00;106441;1271;22656;-62
2023/01/12 02:28:13;;;;;;;11.90;3.20;;;;;;;5.68;97.98;100288.25;106450;1264;22540;-62
2023/01/12 02:31:24;;;;;;;14.10;3.80;;;;;;;5.65;98.06;100290.63;106210;1268;25447;-62
2023/01/12 02:34:08;;;;;;;11.60;3.60;;;;;;;5.64;98.26;100297.33;105704;1283;24412;-63
2023/01/12 02:36:47;;;;;;;12.40;4.30;;;;;;;5.62;98.32;100301.48;105732;1279;24280;-63
2023/01/12 02:39:26;;;;;;;15.20;4.00;;;;;;;5.62;98.29;100305.77;105696;1280;22555;-62
2023/01/12 02:45:00;;;;;;;18.20;3.60;;;;;;;5.58;98.19;100308.98;105812;1286;24312;-62
2023/01/12 02:47:46;;;;;;;14.10;4.40;;;;;;;5.56;98.18;100304.86;106223;1285;22540;-62
2023/01/12 02:50:21;;;;;;;16.80;3.90;;;;;;;5.54;98.20;100303.73;105848;1280;24277;-62
2023/01/12 02:52:59;;;;;;;17.70;4.60;;;;;;;5.54;98.20;100298.84;105905;1283;22572;-63
2023/01/12 02:55:33;;;;;;;11.70;3.20;;;;;;;5.54;98.09;100302.31;105671;1274;22569;-62
2023/01/12 02:58:07;;;;;;;14.70;3.60;;;;;;;5.52;98.04;100297.62;105894;1280;22533;-63
2023/01/12 03:00:40;;;;;;;18.10;4.50;;;;;;;5.51;97.83;100291.49;105769;1285;26380;-62
2023/01/12 03:03:11;;;;;;;13.00;3.70;;;;;;;5.48;97.93;100294.08;105803;1286;25414;-62
2023/01/12 03:05:43;;;;;;;15.10;4.40;;;;;;;5.48;97.88;100300.02;106041;1277;22545;-62
2023/01/12 03:08:20;;;;;;;14.40;4.80;;;;;;;5.49;97.89;100307.37;106050;1279;24192;-62
2023/01/12 03:11:02;;;;;;;13.70;4.20;;;;;;;5.48;97.82;100309.04;106386;1268;22527;-62
2023/01/12 03:13:37;;;;;;;14.60;4.30;;;;;;;5.47;97.66;100308.29;106533;1265;22642;-62
2023/01/12 03:16:11;;;;;;;15.30;4.70;;;;;;;5.48;97.70;100308.04;106570;1276;23016;-62
2023/01/12 03:18:49;;;;;;;15.20;4.60;;;;;;;5.47;97.68;100310.52;106741;1276;22541;-63
2023/01/12 03:21:25;;;;;;;15.10;4.70;;;;;;;5.46;97.56;100309.30;106606;1262;22546;-62
2023/01/12 03:24:03;;;;;;;14.70;5.10;;;;;;;5.45;97.38;100307.89;106493;1253;22527;-62
2023/01/12 03:26:37;;;;;;;16.30;5.30;;;;;;;5.43;97.32;100309.22;106562;1268;22531;-62
2023/01/12 03:29:13;;;;;;;16.90;5.60;;;;;;;5.41;97.32;100305.23;106480;1268;24256;-62
2023/01/12 03:31:45;;;;;;;12.40;4.60;;;;;;;5.39;97.18;100304.34;106523;1276;22525;-63
2023/01/12 03:34:16;;;;;;;17.50;5.30;;;;;;;5.37;97.05;100303.17;106631;1262;24400;-63
2023/01/12 03:36:59;;;;;;;16.50;6.10;;;;;;;5.32;97.04;100299.98;106622;1262;23154;-63
2023/01/12 03:39:38;;;;;;;16.50;4.80;;;;;;;5.29;97.25;100288.52;106505;1262;22658;-62
2023/01/12 03:42:15;;;;;;;17.70;6.30;;;;;;;5.28;97.26;100291.81;106662;1273;25277;-61
2023/01/12 03:44:52;;;;;;;16.20;4.80;;;;;;;5.25;97.16;100286.38;106467;1257;203917;-63
2023/01/12 03:47:28;;;;;;;17.80;5.30;;;;;;;5.23;97.27;100292.67;106670;1261;22521;-62
2023/01/12 03:50:03;;;;;;;14.50;4.70;;;;;;;5.20;97.29;100289.77;106593;1276;22537;-61
2023/01/12 03:52:37;;;;;;;18.80;6.40;;;;;;;5.19;97.34;100289.25;106694;1276;25344;-62
2023/01/12 03:55:12;;;;;;;21.40;6.10;;;;;;;5.17;97.28;100295.40;106566;1273;24216;-63
2023/01/12 03:57:45;;;;;;;18.40;6.00;;;;;;;5.15;97.34;100289.38;106571;1275;24246;-63
2023/01/12 04:00:20;;;;;;;18.40;4.50;;;;;;;5.14;97.31;100294.36;106773;1276;22784;-62
2023/01/12 04:03:01;;;;;;;18.50;5.70;;;;;;;5.11;97.19;100301.73;106529;1262;22527;-62
2023/01/12 04:05:33;;;;;;;21.10;5.50;;;;;;;5.07;97.21;100303.67;106655;1270;22536;-63
2023/01/12 04:08:04;;;;;;;16.30;5.30;;;;;;;5.05;97.25;100305.95;106537;1276;23026;-62
2023/01/12 04:10:35;;;;;;;19.10;5.90;;;;;;;5.02;97.21;100309.10;106699;1276;22658;-62
2023/01/12 04:13:06;;;;;;;16.00;5.30;;;;;;;5.00;97.10;100315.19;106484;1267;22565;-62
2023/01/12 04:15:41;;;;;;;17.20;5.40;;;;;;;4.97;97.09;100319.77;106600;1268;23152;-63
2023/01/12 04:18:12;;;;;;;15.00;4.50;;;;;;;4.96;97.04;100320.59;106593;1262;24331;-63
2023/01/12 04:20:44;;;;;;;17.30;4.80;;;;;;;4.91;96.83;100319.39;106614;1268;24260;-63
2023/01/12 04:23:14;;;;;;;15.30;5.20;;;;;;;4.85;96.79;100319.15;106634;1268;22530;-63
2023/01/12 04:25:45;;;;;;;14.70;4.00;;;;;;;4.81;96.76;100310.91;106527;1276;26507;-63
2023/01/12 04:28:16;;;;;;;17.10;3.90;;;;;;;4.75;96.83;100316.74;106532;1273;22542;-63
2023/01/12 04:30:47;;;;;;;13.90;4.30;;;;;;;4.69;96.73;100309.96;106617;1271;23894;-62
2023/01/12 04:33:18;;;;;;;15.20;4.30;;;;;;;4.65;96.75;100312.85;106570;1276;25282;-62
2023/01/12 04:35:50;;;;;;;12.90;4.10;;;;;;;4.63;96.77;100305.65;106557;1262;24370;-62
2023/01/12 04:38:21;;;;;;;14.80;3.90;;;;;;;4.60;96.66;100308.17;106616;1254;22533;-62
2023/01/12 04:40:56;;;;;;;14.00;4.30;;;;;;;4.56;96.65;100306.31;106552;1276;24489;-62
2023/01/12 04:43:27;;;;;;;15.00;4.60;;;;;;;4.53;96.63;100302.75;106660;1268;22536;-62
2023/01/12 04:45:57;;;;;;;13.70;4.80;;;;;;;4.50;96.58;100304.80;106477;1276;25576;-62
2023/01/12 04:48:28;;;;;;;15.80;3.90;;;;;;;4.47;96.53;100304.98;106577;1273;24375;-62
2023/01/12 04:51:01;;;;;;;15.80;4.20;;;;;;;4.43;96.42;100307.79;106578;1276;22553;-61
2023/01/12 04:53:32;;;;;;;18.20;4.60;;;;;;;4.38;96.31;100313.04;106731;1269;24375;-63
2023/01/12 04:56:05;;;;;;;11.60;3.50;;;;;;;4.34;96.33;100310.45;106656;1276;25430;-63
2023/01/12 04:58:36;;;;;;;12.60;3.70;;;;;;;4.30;96.34;100311.27;106670;1275;24256;-62
2023/01/12 05:01:12;;;;;;;14.10;4.40;;;;;;;4.28;96.39;100312.61;106617;1276;22530;-62
2023/01/12 05:03:44;;;;;;;16.00;5.40;;;;;;;4.27;96.34;100309.00;106556;1276;22528;-63
2023/01/12 05:06:15;;;;;;;15.80;4.80;;;;;;;4.25;96.30;100308.02;106487;1276;22521;-63
2023/01/12 05:11:34;;;;;;;17.00;5.70;;;;;;;4.19;96.44;100295.05;106586;1265;22536;-63
2023/01/12 05:14:06;;;;;;;18.40;5.20;;;;;;;4.17;96.43;100293.39;106497;1276;22525;-62
2023/01/12 05:16:37;;;;;;;18.20;4.50;;;;;;;4.13;96.16;100297.29;106569;1276;22534;-62
2023/01/12 05:19:09;;;;;;;18.30;5.50;;;;;;;4.10;96.27;100295.14;106558;1276;22530;-62
2023/01/12 05:21:39;;;;;;;14.90;4.10;;;;;;;4.06;96.32;100293.66;106641;1276;24238;-62
2023/01/12 05:24:11;;;;;;;15.00;3.80;;;;;;;4.04;96.43;100292.52;106544;1262;22529;-60
2023/01/12 05:26:42;;;;;;;20.00;6.40;;;;;;;4.01;96.63;100295.98;106764;1265;22530;-60
2023/01/12 05:29:14;;;;;;;15.10;3.70;;;;;;;4.00;96.71;100293.17;106597;1261;22517;-61
2023/01/12 05:31:45;;;;;;;14.00;4.70;;;;;;;4.00;96.72;100290.89;106526;1276;22593;-62
2023/01/12 05:34:18;;;;;;;15.50;3.80;;;;;;;3.99;96.79;100294.30;106603;1266;24261;-62
2023/01/12 05:36:49;;;;;;;12.40;3.50;;;;;;;4.00;96.78;100296.19;106531;1274;22533;-62
2023/01/12 05:39:21;;;;;;;13.20;4.50;;;;;;;3.99;96.85;100298.33;108120;1273;22546;-61
2023/01/12 05:44:40;;;;;;;16.90;4.90;;;;;;;3.98;96.61;100291.42;106507;1274;24244;-61
2023/01/12 05:47:11;;;;;;;17.00;5.30;;;;;;;3.96;96.58;100289.73;106516;1276;22528;-61
2023/01/12 05:49:42;;;;;;;16.40;3.80;;;;;;;3.94;96.59;100284.42;106591;1276;24245;-61
2023/01/12 05:52:13;;;;;;;13.10;3.70;;;;;;;3.91;96.64;100286.30;106615;1269;23424;-61
2023/01/12 05:54:45;;;;;;;13.70;4.40;;;;;;;3.91;96.65;100297.12;106504;1269;24231;-61
2023/01/12 05:57:16;;;;;;;18.70;4.30;;;;;;;3.90;96.68;100299.59;106633;1265;22753;-61
2023/01/12 05:59:46;;;;;;;15.50;5.40;;;;;;;3.89;96.62;100298.66;106546;1271;24260;-61
2023/01/12 06:02:20;;;;;;;17.00;3.90;;;;;;;3.89;96.62;100300.11;106524;1268;22513;-61
2023/01/12 06:04:51;;;;;;;15.60;3.80;;;;;;;3.86;96.55;100298.25;106553;1268;22539;-61
2023/01/12 06:07:22;;;;;;;14.70;4.50;;;;;;;3.85;96.58;100308.70;106487;1271;22527;-61
2023/01/12 06:09:53;;;;;;;16.60;4.20;;;;;;;3.82;96.51;100311.61;106670;1262;22531;-61
2023/01/12 06:15:13;;;;;;;17.30;3.80;;;;;;;3.80;96.52;100308.43;106484;1269;22554;-62
2023/01/12 06:17:44;;;;;;;17.40;4.90;;;;;;;3.79;96.54;100308.63;106433;1268;23013;-62
2023/01/12 06:20:16;;;;;;;16.50;4.20;;;;;;;3.78;96.65;100308.56;107485;1269;22521;-61
2023/01/12 06:22:47;;;;;;;13.40;3.70;;;;;;;3.78;96.67;100308.64;107333;1273;22581;-61
2023/01/12 06:25:18;;;;;;;16.90;4.10;;;;;;;3.78;96.70;100306.35;106534;1261;25354;-62
2023/01/12 06:27:49;;;;;;;13.70;3.40;;;;;;;3.78;96.62;100306.58;106562;1253;22533;-61
2023/01/12 06:30:20;;;;;;;16.80;4.60;;;;;;;3.77;96.42;100306.30;106550;1269;22533;-61
2023/01/12 06:32:51;;;;;;;15.80;4.50;;;;;;;3.74;96.42;100300.30;106606;1276;22825;-62
2023/01/12 06:35:22;;;;;;;15.80;4.60;;;;;;;3.73;96.45;100296.77;106573;1269;24248;-62
2023/01/12 06:37:57;;;;;;;14.40;4.80;;;;;;;3.71;96.34;100296.19;106573;1275;22532;-61
2023/01/12 06:40:28;;;;;;;17.40;4.50;;;;;;;3.69;96.32;100293.24;106855;1262;24239;-61
2023/01/12 06:42:59;;;;;;;17.20;5.30;;;;;;;3.67;96.38;100295.89;106480;1262;24257;-62
2023/01/12 06:45:30;;;;;;;20.40;4.60;;;;;;;3.65;96.46;100297.13;106779;1276;23317;-62
2023/01/12 06:48:01;;;;;;;19.80;5.40;;;;;;;3.64;96.42;100293.98;106537;1268;24236;-63
2023/01/12 06:50:32;;;;;;;20.70;5.30;;;;;;;3.64;96.36;100290.75;106546;1276;22541;-63
2023/01/12 06:53:05;;;;;;;16.00;4.30;;;;;;;3.63;96.41;100294.79;106681;1272;22639;-62
2023/01/12 06:55:36;;;;;;;16.10;4.10;;;;;;;3.63;96.46;100294.16;106592;1276;24369;-63
2023/01/12 06:58:07;;;;;;;12.50;3.90;;;;;;;3.63;96.40;100300.09;106603;1265;22639;-63
2023/01/12 07:00:38;;;;;;;17.90;4.60;;;;;;;3.62;96.24;100296.41;106643;1263;24248;-62
2023/01/12 07:03:16;;;;;;;18.90;5.20;;;;;;;3.61;96.41;100291.23;106693;1276;22739;-63
2023/01/12 07:05:47;;;;;;;21.60;6.70;;;;;;;3.61;96.43;100288.39;106624;1262;22547;-62
2023/01/12 07:08:18;;;;;;;17.90;6.10;;;;;;;3.59;96.55;100288.17;106608;1268;24342;-63
2023/01/12 07:10:49;;;;;;;20.00;7.70;;;;;;;3.58;96.58;100289.33;106552;1276;25467;-63
2023/01/12 07:13:20;;;;;;;15.90;5.90;;;;;;;3.58;96.64;100289.41;106567;1271;24271;-62
2023/01/12 07:15:51;;;;;;;20.20;6.50;;;;;;;3.57;96.56;100289.44;106548;1276;24216;-63
2023/01/12 07:18:23;;;;;;;21.40;6.10;;;;;;;3.56;96.73;100290.77;106570;1262;22533;-63
2023/01/12 07:20:54;;;;;;;22.70;6.70;;;;;;;3.56;96.76;100293.00;106726;1276;25611;-63
2023/01/12 07:23:25;;;;;;;20.20;7.50;;;;;;;3.56;96.72;100286.70;106572;1269;22532;-62
2023/01/12 07:25:58;;;;;;;20.00;6.00;;;;;;;3.55;96.71;100286.80;106702;1276;22534;-62
2023/01/12 07:28:30;;;;;;;21.40;7.00;;;;;;;3.55;96.76;100287.75;106514;1268;22532;-62
2023/01/12 07:31:03;;;;;;;18.40;6.40;;;;;;;3.54;96.74;100287.31;106512;1270;23026;-62
2023/01/12 07:33:36;;;;;;;16.90;5.80;;;;;;;3.54;96.77;100289.73;106657;1269;22533;-63
2023/01/12 07:36:08;;;;;;;17.10;6.00;;;;;;;3.54;96.77;100295.19;106548;1265;23767;-63
2023/01/12 07:38:41;;;;;;;19.20;6.20;;;;;;;3.54;96.78;100298.42;106550;1263;25220;-63
2023/01/12 07:42:22;;;;;;;17.70;5.30;;;;;;;3.54;96.87;100297.69;106698;1253;25496;-62
2023/01/12 07:44:04;;;;;;;19.90;5.10;;;;;;;3.56;97.00;100295.69;106585;1276;24293;-62
2023/01/12 07:46:35;;;;;;;23.30;6.60;;;;;;;3.56;97.14;100301.13;106632;1271;25806;-63
2023/01/12 07:49:06;;;;;;;15.50;4.20;;;;;;;3.57;97.18;100297.70;106568;1259;22610;-63
2023/01/12 07:51:38;;;;;;;16.00;5.10;;;;;;;3.58;97.20;100293.89;106509;1261;24226;-62
2023/01/12 07:54:10;;;;;;;20.20;5.50;;;;;;;3.61;97.24;100283.17;106649;1270;22537;-63
2023/01/12 07:56:41;;;;;;;19.20;5.40;;;;;;;3.65;97.35;100281.36;106626;1263;24626;-62
2023/01/12 07:59:12;;;;;;;21.00;5.10;;;;;;;3.69;97.35;100282.05;106584;1269;23034;-63
2023/01/12 08:01:43;;;;;;;16.80;5.30;;;;;;;3.73;97.48;100286.91;106653;1276;25450;-63
2023/01/12 08:04:15;;;;;;;15.30;3.80;;;;;;;3.77;97.55;100288.38;106655;1273;22559;-63
2023/01/12 08:06:45;;;;;;;17.50;4.40;;;;;;;3.82;97.53;100289.55;106494;1270;26506;-62
2023/01/12 08:09:17;;;;;;;14.60;3.10;;;;;;;3.86;97.46;100288.42;106548;1273;22547;-63
2023/01/12 08:11:48;;;;;;;17.70;3.80;;;;;;;3.89;97.53;100287.86;106585;1274;22525;-62
2023/01/12 08:14:27;;;;;;;17.20;3.90;;;;;;;3.91;97.46;100290.89;106591;1271;23155;-62
2023/01/12 08:17:00;;;;;;;17.20;4.50;;;;;;;3.94;97.60;100286.23;106662;1276;22536;-62
2023/01/12 08:19:37;;;;;;;19.90;3.70;;;;;;;3.96;97.64;100287.84;106803;1265;22537;-62
2023/01/12 08:22:14;;;;;;;13.10;3.10;;;;;;;4.00;97.61;100287.75;106723;1276;25224;-62
2023/01/12 08:24:50;;;;;;;13.20;3.50;;;;;;;4.05;97.85;100276.23;106624;1269;22585;-64
2023/01/12 08:27:24;;;;;;;16.50;4.10;;;;;;;4.09;97.90;100279.77;106610;1274;22534;-63
2023/01/12 08:29:57;;;;;;;12.00;2.50;;;;;;;4.16;97.93;100280.23;106613;1268;22551;-62
2023/01/12 08:32:29;;;;;;;15.10;2.30;;;;;;;4.23;97.98;100276.17;106630;1268;22533;-62
2023/01/12 08:35:03;;;;;;;12.60;2.10;;;;;;;4.30;97.88;100276.39;106643;1276;25367;-63
2023/01/12 08:37:35;;;;;;;12.30;1.50;;;;;;;4.37;97.86;100282.26;106934;1276;23002;-63
2023/01/12 08:40:09;;;;;;;12.20;2.50;;;;;;;4.47;97.87;100285.48;106749;1276;22531;-63
2023/01/12 08:42:40;;;;;;;8.20;1.60;;;;;;;4.55;97.91;100289.42;106707;1269;24257;-62
2023/01/12 08:45:12;;;;;;;9.10;1.50;;;;;;;4.63;97.76;100291.65;106660;1265;24359;-62
2023/01/12 08:47:44;;;;;;;12.40;2.10;;;;;;;4.71;97.80;100295.23;106648;1276;22532;-62
2023/01/12 08:50:15;;;;;;;13.50;2.10;;;;;;;4.77;97.80;100290.71;106550;1272;22619;-63
2023/01/12 08:52:46;;;;;;;12.60;1.90;;;;;;;4.82;97.75;100295.98;106559;1276;24469;-63
2023/01/12 08:55:17;;;;;;;8.20;1.80;;;;;;;4.87;97.70;100299.69;106525;1272;25621;-63
2023/01/12 08:57:48;;;;;;;14.60;2.50;;;;;;;4.92;97.63;100298.89;106546;1269;25424;-62
2023/01/12 09:00:21;;;;;;;10.20;2.20;;;;;;;4.97;97.43;100300.98;106705;1268;24231;-62
2023/01/12 09:02:52;;;;;;;15.40;2.10;;;;;;;5.01;97.27;100299.09;106605;1275;22530;-63
2023/01/12 09:05:24;;;;;;;13.10;2.90;;;;;;;5.05;97.24;100297.54;106593;1272;22946;-62
2023/01/12 09:07:55;;;;;;;12.80;2.20;;;;;;;5.11;97.28;100295.73;106594;1269;24419;-62
2023/01/12 09:10:25;;;;;;;10.60;1.90;;;;;;;5.15;97.27;100297.02;106567;1273;25322;-63
2023/01/12 09:12:58;;;;;;;16.10;2.70;;;;;;;5.19;97.09;100294.54;106531;1272;24245;-63
2023/01/12 09:15:29;;;;;;;13.00;1.80;;;;;;;5.25;97.07;100297.27;106601;1275;27006;-63
2023/01/12 09:18:00;;;;;;;8.90;1.30;;;;;;;5.31;97.13;100296.92;106634;1266;22534;-62
2023/01/12 09:20:32;;;;;;;11.10;1.90;;;;;;;5.38;96.98;100293.56;106587;1273;24659;-63
2023/01/12 09:23:05;;;;;;;10.70;1.60;;;;;;;5.46;97.06;100289.41;106621;1276;24252;-63
2023/01/12 09:25:37;;;;;;;15.80;2.10;;;;;;;5.54;97.02;100288.21;106541;1276;25380;-63
2023/01/12 09:28:08;;;;;;;13.40;1.90;;;;;;;5.61;97.00;100292.12;106584;1274;22544;-63
2023/01/12 09:30:39;;;;;;;9.70;1.80;;;;;;;5.68;96.87;100289.91;106559;1275;24253;-63
2023/01/12 09:33:10;;;;;;;8.80;1.30;;;;;;;5.75;96.83;100288.09;106479;1266;24313;-63
2023/01/12 09:35:43;;;;;;;6.90;1.20;;;;;;;5.85;96.80;100284.80;106574;1269;24379;-62
2023/01/12 09:38:14;;;;;;;14.40;1.40;;;;;;;5.92;96.73;100288.68;106623;1276;22754;-62
2023/01/12 09:40:45;;;;;;;11.40;1.30;;;;;;;6.01;96.50;100288.39;106528;1276;22538;-63
2023/01/12 09:49:00;;;;;;;8.20;2.20;;;;;;;6.31;96.58;100279.98;106489;1273;24445;-63
2023/01/12 09:51:37;;;;;;;12.10;1.40;;;;;;;6.41;96.37;100282.41;106651;1275;22531;-63
2023/01/12 09:54:10;;;;;;;9.30;1.70;;;;;;;6.51;96.12;100280.06;106511;1275;25350;-63
2023/01/12 09:56:51;;;;;;;10.30;1.50;;;;;;;6.56;96.13;100279.95;106617;1272;25349;-63
2023/01/12 09:59:39;;;;;;;7.00;1.30;;;;;;;6.63;95.45;100280.99;106582;1256;24198;-63
2023/01/12 10:02:13;;;;;;;11.50;1.30;;;;;;;6.70;95.31;100280.23;106498;1269;23174;-63
2023/01/12 10:04:46;;;;;;;12.30;1.20;;;;;;;6.79;94.64;100274.69;106638;1276;26117;-64
2023/01/12 10:07:19;;;;;;;7.10;1.00;;;;;;;6.87;94.56;100277.86;106581;1269;25467;-63
2023/01/12 10:09:51;;;;;;;9.60;1.00;;;;;;;6.96;94.28;100273.32;106674;1269;24243;-63
2023/01/12 10:12:29;;;;;;;9.30;1.10;;;;;;;7.05;94.46;100264.84;106635;1261;24260;-63
2023/01/12 10:15:29;;;;;;;9.00;1.10;;;;;;;7.13;93.96;100264.13;106686;1269;22548;-64
2023/01/12 10:18:09;;;;;;;12.20;1.00;;;;;;;7.23;93.76;100261.03;106644;1268;22529;-64
2023/01/12 10:20:44;;;;;;;6.20;0.90;;;;;;;7.30;93.83;100260.98;106634;1269;22531;-64
2023/01/12 10:23:23;;;;;;;6.80;1.00;;;;;;;7.37;93.42;100256.13;106671;1262;25858;-64
2023/01/12 10:26:04;;;;;;;7.40;0.90;;;;;;;7.43;93.19;100256.58;106650;1276;22531;-65
2023/01/12 10:28:38;;;;;;;5.70;0.90;;;;;;;7.51;92.59;100254.45;106690;1269;25873;-59
2023/01/12 10:31:16;;;;;;;5.30;0.80;;;;;;;7.59;92.27;100250.46;106608;1276;24337;-61
2023/01/12 10:34:05;;;;;;;8.20;1.10;;;;;;;7.66;92.10;100238.98;106707;1274;26595;-62
2023/01/12 10:36:42;;;;;;;9.10;0.80;;;;;;;7.70;92.38;100233.12;106641;1265;24189;-59
2023/01/12 10:39:31;;;;;;;8.30;0.90;;;;;;;7.74;91.61;100230.16;106649;1273;25278;-61
2023/01/12 10:45:21;;;;;;;5.80;1.00;;;;;;;7.85;90.83;100225.89;106543;1276;24226;-60
2023/01/12 10:47:54;;;;;;;4.90;0.60;;;;;;;7.90;90.90;100227.13;106566;1261;22535;-58
2023/01/12 10:50:28;;;;;;;6.70;0.80;;;;;;;7.93;90.43;100224.20;106496;1269;22540;-60
2023/01/12 10:53:02;;;;;;;14.40;1.00;;;;;;;7.96;90.68;100229.71;106757;1276;22672;-60
2023/01/12 10:55:38;;;;;;;4.00;0.60;;;;;;;8.00;90.73;100222.79;106682;1269;24570;-59
2023/01/12 10:58:23;;;;;;;4.30;0.50;;;;;;;8.03;90.53;100220.36;106602;1276;26145;-59
2023/01/12 11:00:54;;;;;;;7.30;0.80;;;;;;;8.08;90.10;100213.15;106595;1264;24247;-59
2023/01/12 11:03:37;;;;;;;7.70;0.80;;;;;;;8.12;89.84;100200.91;106529;1276;25322;-57
2023/01/12 11:06:25;;;;;;;7.30;0.90;;;;;;;8.14;89.73;100198.77;106589;1276;25274;-60
2023/01/12 11:08:57;;;;;;;9.40;1.20;;;;;;;8.15;89.19;100192.37;106600;1275;24286;-60
2023/01/12 11:11:31;;;;;;;8.30;0.90;;;;;;;8.14;89.20;100178.10;106570;1276;22546;-59
2023/01/12 11:14:04;;;;;;;6.30;0.70;;;;;;;8.11;88.24;100173.30;106718;1276;22575;-60
2023/01/12 11:16:39;;;;;;;9.70;1.10;;;;;;;8.09;87.48;100166.41;106542;1276;25403;-59
2023/01/12 11:19:23;;;;;;;7.00;0.70;;;;;;;8.09;87.87;100156.53;106553;1270;22544;-60
2023/01/12 11:22:00;;;;;;;4.60;0.90;;;;;;;8.10;88.42;100147.52;106559;1273;25498;-59
2023/01/12 11:24:38;;;;;;;6.60;0.90;;;;;;;8.12;88.39;100138.62;106600;1262;24386;-59
2023/01/12 11:27:17;;;;;;;8.80;0.90;;;;;;;8.13;87.64;100132.38;106530;1273;22542;-59
2023/01/12 11:29:58;;;;;;;9.70;0.90;;;;;;;8.14;87.34;100127.40;106508;1273;22617;-58
2023/01/12 11:32:38;;;;;;;7.10;0.80;;;;;;;8.16;87.56;100121.05;106600;1264;25233;-59
2023/01/12 11:35:28;;;;;;;9.60;0.90;;;;;;;8.19;87.36;100122.01;106553;1261;22559;-58
2023/01/12 11:38:04;;;;;;;7.90;0.80;;;;;;;8.22;86.27;100113.23;106484;1276;22537;-59
2023/01/12 11:40:37;;;;;;;6.50;1.00;;;;;;;8.26;85.80;100111.89;106546;1270;23912;-59
2023/01/12 11:46:23;;;;;;;6.20;0.70;;;;;;;8.30;86.14;100098.77;106495;1276;22532;-58
2023/01/12 11:49:02;;;;;;;8.80;0.80;;;;;;;8.31;85.46;100097.73;106582;1272;25325;-59
2023/01/12 11:51:33;;;;;;;11.60;1.40;;;;;;;8.32;85.32;100089.50;106531;1269;23025;-57
2023/01/12 11:54:05;;;;;;;7.40;0.80;;;;;;;8.35;84.10;100094.88;106458;1276;24445;-59
2023/01/12 11:57:00;;;;;;;5.40;0.70;;;;;;;8.36;85.54;100094.10;106589;1276;24239;-59
2023/01/12 11:59:37;;;;;;;16.30;1.30;;;;;;;8.38;85.33;100100.38;106525;1269;24224;-56
2023/01/12 12:02:22;;;;;;;6.10;0.50;;;;;;;8.41;84.53;100095.70;106830;1271;25361;-59
2023/01/12 12:05:05;;;;;;;9.60;0.90;;;;;;;8.42;84.46;100092.55;106616;1276;22658;-59
2023/01/12 12:07:53;;;;;;;6.60;0.70;;;;;;;8.44;84.59;100096.78;106688;1266;22643;-59
2023/01/12 12:10:31;;;;;;;5.30;1.30;;;;;;;8.46;83.70;100095.00;106560;1273;22577;-58
2023/01/12 12:13:23;;;;;;;10.40;0.80;;;;;;;8.46;83.59;100097.48;107463;1255;22637;-59
2023/01/12 12:16:06;;;;;;;5.00;1.00;;;;;;;8.45;84.05;100093.33;106720;1265;22993;-59
2023/01/12 12:18:54;;;;;;;4.50;0.70;;;;;;;8.47;84.22;100092.71;106367;1274;24314;-59
2023/01/12 12:21:45;;;;;;;9.10;1.00;;;;;;;8.48;83.92;100094.52;106527;1262;22547;-59
2023/01/12 12:24:31;;;;;;;6.90;0.80;;;;;;;8.49;84.25;100086.56;106526;1276;22554;-59
2023/01/12 12:27:13;;;;;;;8.00;0.90;;;;;;;8.51;84.10;100084.41;106718;1276;25985;-59